Time;durP1;ratioP1;P1;durP2;ratioP2;P2;SDS_P1;SDS_P2;PMS_P1;PMS_P2;Temp;Humidity;BMP_temperature;BMP_pressure;BME280_temperature;BME280_humidity;BME280_pressure;Samples;Min_cycle;Max_cycle;Signal;HPM_P1;HPM_P2
2022/10/11 00:02:21;;;;;;;12.98;2.28;;;9.00;99.90;;;;;;5070661;28;20047;-49
2022/10/11 00:04:49;;;;;;;19.67;2.75;;;7.30;99.90;;;;;;5072566;28;20567;-47
2022/10/11 00:07:16;;;;;;;16.02;3.33;;;9.20;99.90;;;;;;5069566;28;20490;-51
2022/10/11 00:09:42;;;;;;;13.57;2.90;;;8.10;99.90;;;;;;5070975;28;20798;-47
2022/10/11 00:12:08;;;;;;;13.55;2.15;;;8.40;99.90;;;;;;5070584;28;20040;-51
2022/10/11 00:14:34;;;;;;;14.68;2.20;;;9.20;99.90;;;;;;5068789;28;20113;-48
2022/10/11 00:17:00;;;;;;;16.77;2.97;;;7.30;99.90;;;;;;5071746;28;20051;-50
2022/10/11 00:19:25;;;;;;;15.60;2.58;;;7.30;99.90;;;;;;5071304;28;20050;-48
2022/10/11 00:21:51;;;;;;;15.90;2.38;;;7.40;99.90;;;;;;5069886;28;20036;-48
2022/10/11 00:24:17;;;;;;;12.13;2.10;;;8.00;99.90;;;;;;5069611;28;20877;-50
2022/10/11 00:26:43;;;;;;;20.70;3.78;;;8.30;99.90;;;;;;5071913;28;20040;-53
2022/10/11 00:29:09;;;;;;;13.32;2.25;;;9.10;99.90;;;;;;5071417;28;20058;-50
2022/10/11 00:31:35;;;;;;;13.90;3.20;;;8.30;99.90;;;;;;5070702;28;20036;-48
2022/10/11 00:34:01;;;;;;;15.40;1.88;;;7.50;99.90;;;;;;5071896;28;20527;-48
2022/10/11 00:36:26;;;;;;;19.15;2.33;;;8.50;99.90;;;;;;5072981;28;20028;-48
2022/10/11 00:38:52;;;;;;;12.95;1.98;;;7.70;99.90;;;;;;5071576;28;20032;-48
2022/10/11 00:41:18;;;;;;;13.90;2.03;;;10.00;99.90;;;;;;5070358;28;20036;-50
2022/10/11 00:43:44;;;;;;;18.98;2.33;;;7.50;99.90;;;;;;5070923;28;20131;-48
2022/10/11 00:46:18;;;;;;;9.75;1.95;;;7.50;99.90;;;;;;5071344;28;20052;-52
2022/10/11 00:48:53;;;;;;;19.85;3.08;;;7.90;99.90;;;;;;5071474;28;20067;-49
2022/10/11 00:51:37;;;;;;;19.50;2.72;;;7.90;99.90;;;;;;5073015;28;20047;-49
2022/10/11 00:54:04;;;;;;;14.88;2.30;;;8.50;99.90;;;;;;5069161;28;20040;-53
2022/10/11 00:56:34;;;;;;;12.38;2.50;;;7.50;99.90;;;;;;5069038;28;20327;-50
2022/10/11 00:59:03;;;;;;;12.23;2.38;;;9.20;99.90;;;;;;5070909;28;20044;-49
2022/10/11 01:01:28;;;;;;;16.63;1.95;;;7.90;99.90;;;;;;5069565;28;20044;-47
2022/10/11 01:03:54;;;;;;;15.70;2.80;;;8.80;99.90;;;;;;5070670;28;20034;-50
2022/10/11 01:06:20;;;;;;;17.65;2.08;;;7.80;99.90;;;;;;5070798;28;20047;-51
2022/10/11 01:08:46;;;;;;;12.40;2.45;;;7.40;99.90;;;;;;5068860;28;20206;-48
2022/10/11 01:11:16;;;;;;;12.23;2.50;;;9.80;99.90;;;;;;5070974;28;20133;-47
2022/10/11 01:13:53;;;;;;;17.55;2.63;;;7.70;99.90;;;;;;5070363;28;20040;-48
2022/10/11 01:16:36;;;;;;;14.30;2.20;;;9.60;99.90;;;;;;5068830;28;20043;-51
2022/10/11 01:19:26;;;;;;;18.40;2.45;;;9.70;99.90;;;;;;5070277;28;20043;-49
2022/10/11 01:21:54;;;;;;;14.25;1.90;;;7.60;99.90;;;;;;5070192;28;20036;-48
2022/10/11 01:24:42;;;;;;;14.88;2.35;;;8.60;99.90;;;;;;5067814;28;20111;-47
2022/10/11 01:27:10;;;;;;;15.82;2.42;;;7.50;99.90;;;;;;5069326;28;20161;-50
2022/10/11 01:29:54;;;;;;;15.65;1.92;;;7.70;99.90;;;;;;5069077;28;20040;-52
2022/10/11 01:32:20;;;;;;;10.27;1.98;;;8.10;99.90;;;;;;5069143;28;20048;-47
2022/10/11 01:35:19;;;;;;;14.63;2.72;;;9.50;99.90;;;;;;5069861;28;20040;-49
2022/10/11 01:37:53;;;;;;;10.20;1.92;;;7.40;99.90;;;;;;5070829;28;20040;-49
2022/10/11 01:40:28;;;;;;;14.95;1.83;;;9.00;99.90;;;;;;5067477;28;21331;-50
2022/10/11 01:42:55;;;;;;;10.60;2.80;;;7.40;99.90;;;;;;5067544;28;20078;-50
2022/10/11 01:45:23;;;;;;;16.40;1.98;;;7.70;99.90;;;;;;5067511;28;20451;-47
2022/10/11 01:48:07;;;;;;;9.85;2.03;;;7.40;99.90;;;;;;5070324;28;20187;-51
2022/10/11 01:50:41;;;;;;;8.80;2.25;;;7.30;99.90;;;;;;5071116;28;20517;-51
2022/10/11 01:53:27;;;;;;;15.25;2.08;;;8.10;99.90;;;;;;5070072;28;20454;-49
2022/10/11 01:56:16;;;;;;;12.30;1.92;;;7.10;99.90;;;;;;5061492;28;20059;-48
2022/10/11 01:58:56;;;;;;;13.80;1.95;;;6.80;99.90;;;;;;5049807;28;20044;-53
2022/10/11 02:01:36;;;;;;;17.17;2.80;;;6.60;99.90;;;;;;5069361;28;20131;-48
2022/10/11 02:04:24;;;;;;;16.77;2.38;;;6.60;99.90;;;;;;5067528;28;20036;-51
2022/10/11 02:06:57;;;;;;;15.15;1.85;;;6.40;99.90;;;;;;5069188;28;20119;-53
2022/10/11 02:09:27;;;;;;;14.05;2.35;;;8.60;99.90;;;;;;5070385;28;20035;-47
2022/10/11 02:12:00;;;;;;;13.32;1.92;;;6.20;99.90;;;;;;5069506;28;20047;-47
2022/10/11 02:14:30;;;;;;;16.67;3.05;;;6.10;99.90;;;;;;5068286;28;20118;-47
2022/10/11 02:17:03;;;;;;;10.45;1.60;;;6.10;99.90;;;;;;5069147;28;20068;-49
2022/10/11 02:19:37;;;;;;;15.85;3.05;;;6.10;99.90;;;;;;5069477;28;20071;-52
2022/10/11 02:22:08;;;;;;;13.85;1.67;;;6.10;99.90;;;;;;5067991;28;20463;-49
2022/10/11 02:24:38;;;;;;;12.83;2.50;;;5.90;99.90;;;;;;5068195;28;20039;-51
2022/10/11 02:27:04;;;;;;;12.20;2.20;;;8.10;99.90;;;;;;5068690;28;20028;-50
2022/10/11 02:29:33;;;;;;;10.30;1.85;;;5.80;99.90;;;;;;5069517;28;20454;-51
2022/10/11 02:32:00;;;;;;;13.35;1.95;;;5.80;99.90;;;;;;5068358;28;20036;-47
2022/10/11 02:34:35;;;;;;;15.13;1.92;;;5.90;99.90;;;;;;5068161;28;20573;-49
2022/10/11 02:37:25;;;;;;;15.38;1.83;;;5.80;99.90;;;;;;5070120;28;20173;-50
2022/10/11 02:40:05;;;;;;;12.00;2.17;;;5.60;99.90;;;;;;5070559;28;20410;-48
2022/10/11 02:42:42;;;;;;;13.68;2.45;;;5.50;99.90;;;;;;5072663;28;20446;-49
2022/10/11 02:45:15;;;;;;;10.27;1.75;;;5.50;99.90;;;;;;5072684;28;20093;-49
2022/10/11 02:47:42;;;;;;;18.70;1.85;;;5.40;99.90;;;;;;5073730;28;20381;-48
2022/10/11 02:50:10;;;;;;;15.93;2.30;;;5.60;99.90;;;;;;5072930;28;20047;-52
2022/10/11 02:52:36;;;;;;;11.45;1.98;;;5.60;99.90;;;;;;5072872;28;20158;-48
2022/10/11 02:55:02;;;;;;;12.88;1.85;;;5.50;99.90;;;;;;5072713;28;20733;-50
2022/10/11 02:57:28;;;;;;;12.38;1.75;;;5.60;99.90;;;;;;5073424;28;20470;-50
2022/10/11 02:59:53;;;;;;;11.23;1.75;;;5.50;99.90;;;;;;5070733;28;20051;-48
2022/10/11 03:02:19;;;;;;;13.70;1.90;;;5.50;99.90;;;;;;5071243;28;20151;-49
2022/10/11 03:04:45;;;;;;;9.60;1.50;;;5.60;99.90;;;;;;5075235;28;20070;-50
2022/10/11 03:07:11;;;;;;;9.95;1.63;;;5.60;99.90;;;;;;5072474;28;20383;-49
2022/10/11 03:09:36;;;;;;;18.13;2.10;;;5.60;99.90;;;;;;5072892;28;20039;-48
2022/10/11 03:12:02;;;;;;;22.02;2.50;;;5.50;99.90;;;;;;5073884;28;20085;-50
2022/10/11 03:14:28;;;;;;;14.07;1.90;;;5.50;99.90;;;;;;5072822;28;20074;-49
2022/10/11 03:16:54;;;;;;;16.42;3.05;;;5.40;99.90;;;;;;5071705;28;20495;-51
2022/10/11 03:19:19;;;;;;;22.45;3.30;;;5.30;99.90;;;;;;5071646;28;20110;-51
2022/10/11 03:21:45;;;;;;;10.45;2.65;;;5.50;99.90;;;;;;5072329;28;20368;-48
2022/10/11 03:24:11;;;;;;;12.73;1.92;;;5.30;99.90;;;;;;5072080;28;20626;-53
2022/10/11 03:26:37;;;;;;;10.02;1.75;;;5.40;99.90;;;;;;5070999;28;20127;-48
2022/10/11 03:29:03;;;;;;;13.15;2.20;;;;;;;;;;5073145;28;20044;-49
2022/10/11 03:31:28;;;;;;;13.75;1.90;;;5.30;99.90;;;;;;5072264;28;20040;-48
2022/10/11 03:33:54;;;;;;;11.57;1.60;;;5.10;99.90;;;;;;5072644;28;20043;-48
2022/10/11 03:36:20;;;;;;;13.98;2.00;;;5.30;99.90;;;;;;5072319;28;20044;-49
2022/10/11 03:38:45;;;;;;;9.02;1.90;;;5.10;99.90;;;;;;5070341;28;20032;-51
2022/10/11 03:41:11;;;;;;;11.90;1.60;;;5.20;99.90;;;;;;5070000;28;20093;-51
2022/10/11 03:43:37;;;;;;;9.60;2.20;;;5.20;99.90;;;;;;5072318;28;20052;-52
2022/10/11 03:46:03;;;;;;;10.50;1.90;;;;;;;;;;5072161;28;20563;-52
2022/10/11 03:48:29;;;;;;;17.30;2.47;;;;;;;;;;5070244;28;20411;-51
2022/10/11 03:50:55;;;;;;;13.40;1.80;;;5.20;99.90;;;;;;5072009;28;20101;-49
2022/10/11 03:53:20;;;;;;;14.02;2.28;;;5.40;99.90;;;;;;5072106;28;20517;-51
2022/10/11 03:55:52;;;;;;;16.05;2.03;;;5.50;99.90;;;;;;5070128;28;20048;-49
2022/10/11 03:58:18;;;;;;;29.30;6.18;;;;;;;;;;5069401;28;20179;-47
2022/10/11 04:00:43;;;;;;;17.45;1.77;;;5.50;99.90;;;;;;5069475;28;20123;-49
2022/10/11 04:03:09;;;;;;;16.48;3.00;;;5.60;99.90;;;;;;5070536;28;21164;-49
2022/10/11 04:05:35;;;;;;;14.45;2.10;;;5.60;99.90;;;;;;5069555;28;20210;-50
2022/10/11 04:08:01;;;;;;;14.15;1.90;;;;;;;;;;5069392;28;20044;-51
2022/10/11 04:10:27;;;;;;;11.27;2.47;;;5.60;99.90;;;;;;5069563;28;20052;-51
2022/10/11 04:12:53;;;;;;;11.25;2.10;;;;;;;;;;5071361;28;20771;-53
2022/10/11 04:15:19;;;;;;;16.10;2.40;;;5.60;99.90;;;;;;5071523;28;20455;-51
2022/10/11 04:17:44;;;;;;;11.48;1.92;;;5.60;99.90;;;;;;5071355;28;20052;-50
2022/10/11 04:20:10;;;;;;;8.60;1.67;;;5.70;99.90;;;;;;5070966;28;20044;-48
2022/10/11 04:22:37;;;;;;;11.63;1.75;;;5.50;99.90;;;;;;5072587;28;20130;-48
2022/10/11 04:25:04;;;;;;;7.70;1.75;;;5.80;99.90;;;;;;5070638;28;20047;-50
2022/10/11 04:27:30;;;;;;;13.57;2.00;;;5.70;99.90;;;;;;5072335;28;20059;-49
2022/10/11 04:29:55;;;;;;;11.23;2.10;;;5.60;99.90;;;;;;5070955;28;20177;-46
2022/10/11 04:32:21;;;;;;;16.15;2.35;;;5.70;99.90;;;;;;5071332;28;20115;-49
2022/10/11 04:34:47;;;;;;;16.95;2.00;;;5.70;99.90;;;;;;5071679;28;20043;-48
2022/10/11 04:37:12;;;;;;;16.67;1.85;;;5.70;99.90;;;;;;5072773;28;20036;-51
2022/10/11 04:39:38;;;;;;;9.57;1.50;;;5.60;99.90;;;;;;5070986;28;23497;-51
2022/10/11 04:42:04;;;;;;;10.85;1.65;;;5.70;99.90;;;;;;5072349;28;20086;-47
2022/10/11 04:44:30;;;;;;;12.52;1.77;;;;;;;;;;5069269;28;20043;-50
2022/10/11 04:46:56;;;;;;;13.68;2.10;;;5.80;99.90;;;;;;5068879;28;20071;-47
2022/10/11 04:49:22;;;;;;;15.23;2.30;;;;;;;;;;5071940;28;20067;-50
2022/10/11 04:51:48;;;;;;;15.85;1.90;;;5.90;99.90;;;;;;5069513;28;20040;-50
2022/10/11 04:54:14;;;;;;;12.18;1.92;;;5.90;99.90;;;;;;5069595;28;20043;-48
2022/10/11 04:56:39;;;;;;;13.60;2.33;;;6.00;99.90;;;;;;5071276;28;20062;-46
2022/10/11 04:59:05;;;;;;;17.38;2.20;;;6.10;99.90;;;;;;5068183;28;20052;-47
2022/10/11 05:01:31;;;;;;;12.23;2.35;;;6.00;99.90;;;;;;5069196;28;20222;-50
2022/10/11 05:03:57;;;;;;;19.15;3.10;;;6.10;99.90;;;;;;5068436;28;20031;-49
2022/10/11 05:06:23;;;;;;;15.82;2.20;;;;;;;;;;5070665;28;20040;-48
2022/10/11 05:08:49;;;;;;;13.98;2.50;;;6.10;99.90;;;;;;5070294;28;20032;-48
2022/10/11 05:11:16;;;;;;;18.42;2.90;;;6.30;99.90;;;;;;5070253;28;20043;-48
2022/10/11 05:13:42;;;;;;;14.05;2.17;;;6.20;99.90;;;;;;5071898;28;20032;-49
2022/10/11 05:16:08;;;;;;;14.35;2.38;;;6.30;99.90;;;;;;5070751;28;20040;-52
2022/10/11 05:18:34;;;;;;;15.40;2.58;;;6.20;99.90;;;;;;5070909;28;20129;-50
2022/10/11 05:21:13;;;;;;;18.73;2.35;;;6.30;99.90;;;;;;5069479;28;20281;-51
2022/10/11 05:23:38;;;;;;;15.73;2.67;;;6.40;99.90;;;;;;5067581;28;20050;-51
2022/10/11 05:26:04;;;;;;;13.57;2.25;;;6.40;99.90;;;;;;5067795;28;20409;-49
2022/10/11 05:28:30;;;;;;;15.65;2.17;;;6.30;99.90;;;;;;5069457;28;20044;-49
2022/10/11 05:30:56;;;;;;;13.43;2.13;;;6.40;99.90;;;;;;5067455;28;20423;-50
2022/10/11 05:33:22;;;;;;;11.57;1.95;;;6.70;99.90;;;;;;5068975;28;20789;-52
2022/10/11 05:35:48;;;;;;;10.45;1.80;;;6.40;99.90;;;;;;5071266;28;20460;-48
2022/10/11 05:38:14;;;;;;;13.98;2.10;;;6.40;99.90;;;;;;5071101;28;20052;-48
2022/10/11 05:40:40;;;;;;;17.98;2.63;;;6.20;99.90;;;;;;5069523;28;20559;-51
2022/10/11 05:43:06;;;;;;;12.77;2.40;;;6.30;99.90;;;;;;5069367;28;20050;-50
2022/10/11 05:45:35;;;;;;;16.80;2.50;;;6.30;99.90;;;;;;5071971;28;20036;-52
2022/10/11 05:48:01;;;;;;;15.38;2.30;;;6.10;99.90;;;;;;5071874;28;20506;-50
2022/10/11 05:50:27;;;;;;;11.38;1.90;;;6.10;99.90;;;;;;5071654;28;20127;-49
2022/10/11 05:52:52;;;;;;;15.10;2.38;;;6.10;99.90;;;;;;5070661;28;20523;-48
2022/10/11 05:55:18;;;;;;;10.85;2.28;;;6.10;99.90;;;;;;5071307;28;20044;-53
2022/10/11 05:57:44;;;;;;;12.55;2.22;;;6.10;99.90;;;;;;5068555;28;20040;-51
2022/10/11 06:00:10;;;;;;;13.40;2.17;;;6.10;99.90;;;;;;5068946;28;20040;-50
2022/10/11 06:02:36;;;;;;;14.93;2.20;;;6.00;99.90;;;;;;5068825;28;20055;-51
2022/10/11 06:05:01;;;;;;;14.70;1.90;;;6.00;99.90;;;;;;5069633;28;20028;-49
2022/10/11 06:07:27;;;;;;;14.02;2.10;;;6.00;99.90;;;;;;5069447;28;20650;-46
2022/10/11 06:09:53;;;;;;;14.02;2.25;;;6.00;99.90;;;;;;5068399;28;20127;-53
2022/10/11 06:12:20;;;;;;;13.20;2.40;;;5.90;99.90;;;;;;5068834;28;20117;-47
2022/10/11 06:14:46;;;;;;;15.57;2.33;;;6.10;99.90;;;;;;5068893;28;20044;-51
2022/10/11 06:17:12;;;;;;;10.20;2.47;;;6.20;99.90;;;;;;5069714;28;20089;-51
2022/10/11 06:19:38;;;;;;;16.42;2.25;;;6.10;99.90;;;;;;5069120;28;20626;-48
2022/10/11 06:22:03;;;;;;;13.95;2.03;;;6.10;99.90;;;;;;5068756;28;20115;-51
2022/10/11 06:24:29;;;;;;;9.98;2.28;;;6.20;99.90;;;;;;5069090;28;20401;-47
2022/10/11 06:26:55;;;;;;;14.68;2.90;;;6.10;99.90;;;;;;5069898;28;20086;-48
2022/10/11 06:29:21;;;;;;;18.85;3.47;;;6.10;99.90;;;;;;5068833;28;20051;-48
2022/10/11 06:31:47;;;;;;;19.73;2.55;;;6.40;99.90;;;;;;5068415;28;20669;-48
2022/10/11 06:34:14;;;;;;;10.60;2.33;;;6.40;99.90;;;;;;5069265;28;20091;-52
2022/10/11 06:36:40;;;;;;;17.67;3.28;;;6.50;99.90;;;;;;5053100;28;20040;-48
2022/10/11 06:39:06;;;;;;;12.75;2.22;;;6.50;99.90;;;;;;5069598;28;20109;-51
2022/10/11 06:41:32;;;;;;;10.75;2.00;;;6.40;99.90;;;;;;5068547;28;20101;-47
2022/10/11 06:43:58;;;;;;;19.23;2.92;;;6.50;99.90;;;;;;5070245;28;20677;-48
2022/10/11 06:46:26;;;;;;;15.63;3.17;;;6.70;99.90;;;;;;5070181;28;20044;-49
2022/10/11 06:48:53;;;;;;;8.57;1.98;;;6.80;99.90;;;;;;5068616;28;20036;-48
2022/10/11 06:51:20;;;;;;;13.13;2.28;;;7.10;99.90;;;;;;5069572;28;20117;-48
2022/10/11 06:53:55;;;;;;;11.95;2.45;;;7.20;99.90;;;;;;5070610;28;20169;-48
2022/10/11 06:56:21;;;;;;;19.63;3.08;;;7.20;99.90;;;;;;5070765;28;20109;-51
2022/10/11 06:58:47;;;;;;;8.45;2.25;;;9.70;99.90;;;;;;5070949;28;20123;-50
2022/10/11 07:01:17;;;;;;;13.85;2.72;;;8.30;99.90;;;;;;5069971;28;20106;-50
2022/10/11 07:03:44;;;;;;;9.63;2.70;;;8.80;99.90;;;;;;5070010;28;20529;-51
2022/10/11 07:06:13;;;;;;;12.45;2.10;;;9.30;99.90;;;;;;5069652;28;20044;-47
2022/10/11 07:08:39;;;;;;;10.60;1.98;;;9.20;99.90;;;;;;5071056;28;20064;-51
2022/10/11 07:11:13;;;;;;;12.00;2.08;;;9.80;99.90;;;;;;5068245;28;20461;-49
2022/10/11 07:13:40;;;;;;;11.60;2.38;;;9.30;99.90;;;;;;5067668;28;20046;-52
2022/10/11 07:16:08;;;;;;;11.23;1.88;;;10.10;99.90;;;;;;5069589;28;20075;-49
2022/10/11 07:18:35;;;;;;;15.55;3.47;;;9.50;99.90;;;;;;5070957;28;20036;-47
2022/10/11 07:21:06;;;;;;;13.88;2.53;;;9.80;99.90;;;;;;5069323;28;20052;-48
2022/10/11 07:23:32;;;;;;;14.45;2.58;;;10.20;99.90;;;;;;5073744;28;20036;-48
2022/10/11 07:25:58;;;;;;;15.02;2.15;;;10.40;99.90;;;;;;5070446;28;20401;-51
2022/10/11 07:28:24;;;;;;;11.27;1.90;;;10.40;99.40;;;;;;5072183;28;20050;-47
2022/10/11 07:30:50;;;;;;;13.32;2.88;;;10.30;95.10;;;;;;5073006;28;20367;-52
2022/10/11 07:33:16;;;;;;;12.18;2.22;;;12.60;96.10;;;;;;5073228;28;20032;-48
2022/10/11 07:35:42;;;;;;;11.32;2.20;;;11.50;94.00;;;;;;5072042;28;20435;-47
2022/10/11 07:38:08;;;;;;;17.30;2.22;;;11.20;95.10;;;;;;5073113;28;20036;-47
2022/10/11 07:40:43;;;;;;;13.52;2.30;;;10.90;96.40;;;;;;5072900;28;20072;-49
2022/10/11 07:43:10;;;;;;;12.00;2.25;;;10.80;93.90;;;;;;5072494;28;20047;-49
2022/10/11 07:45:37;;;;;;;14.20;2.47;;;11.60;93.70;;;;;;5088753;28;20040;-49
2022/10/11 07:48:03;;;;;;;14.93;2.92;;;11.70;93.00;;;;;;5071573;28;20044;-51
2022/10/11 07:50:29;;;;;;;13.65;2.10;;;10.80;91.20;;;;;;5071884;28;20048;-51
2022/10/11 07:52:55;;;;;;;14.27;2.90;;;9.40;92.00;;;;;;5070582;28;20064;-51
2022/10/11 07:55:20;;;;;;;10.73;2.00;;;10.90;92.40;;;;;;5071928;28;20218;-48
2022/10/11 07:57:46;;;;;;;12.43;1.95;;;12.40;94.70;;;;;;5072285;28;20044;-49
2022/10/11 08:00:12;;;;;;;10.35;2.55;;;11.10;96.10;;;;;;5072359;28;20082;-48
2022/10/11 08:02:38;;;;;;;15.15;2.53;;;11.30;90.90;;;;;;5072007;28;20858;-48
2022/10/11 08:05:04;;;;;;;17.08;3.20;;;12.70;82.30;;;;;;5072338;28;20044;-50
2022/10/11 08:07:30;;;;;;;19.52;2.80;;;11.20;90.00;;;;;;5074276;28;20471;-48
2022/10/11 08:09:56;;;;;;;8.63;1.92;;;11.90;87.00;;;;;;5073294;28;20224;-50
2022/10/11 08:12:21;;;;;;;16.40;2.45;;;12.90;89.40;;;;;;5074810;28;20603;-51
2022/10/11 08:14:47;;;;;;;12.73;2.38;;;11.00;90.30;;;;;;5074331;28;20516;-47
2022/10/11 08:17:13;;;;;;;12.02;2.40;;;11.20;91.30;;;;;;5073111;28;20105;-47
2022/10/11 08:19:39;;;;;;;14.43;2.10;;;12.50;94.30;;;;;;5071779;28;20133;-48
2022/10/11 08:22:05;;;;;;;16.35;2.92;;;11.70;84.60;;;;;;5073047;28;20526;-51
2022/10/11 08:24:31;;;;;;;13.35;2.15;;;12.30;75.00;;;;;;5072315;28;20153;-49
2022/10/11 08:26:57;;;;;;;13.80;2.50;;;11.80;75.40;;;;;;5072635;28;20029;-50
2022/10/11 08:29:23;;;;;;;13.52;2.40;;;11.70;71.40;;;;;;5073973;28;20040;-52
2022/10/11 08:31:49;;;;;;;13.60;2.30;;;13.70;74.20;;;;;;5072529;28;20036;-48
2022/10/11 08:34:14;;;;;;;11.52;1.95;;;11.80;74.00;;;;;;5070860;28;20103;-51
2022/10/11 08:36:41;;;;;;;13.27;2.45;;;12.10;77.20;;;;;;5069578;28;20040;-48
2022/10/11 08:39:07;;;;;;;14.93;2.33;;;12.10;74.40;;;;;;5071344;28;20071;-48
2022/10/11 08:41:53;;;;;;;12.73;2.00;;;12.20;71.50;;;;;;5068527;28;20043;-50
2022/10/11 08:44:41;;;;;;;17.33;3.40;;;12.30;59.00;;;;;;5070335;28;20044;-48
2022/10/11 08:47:28;;;;;;;13.60;2.60;;;12.50;51.40;;;;;;5070980;28;20051;-47
2022/10/11 08:49:54;;;;;;;17.48;3.15;;;12.50;50.60;;;;;;5069911;28;20043;-49
2022/10/11 08:52:25;;;;;;;13.88;2.38;;;13.70;51.10;;;;;;5071417;28;20178;-48
2022/10/11 08:55:10;;;;;;;17.60;2.38;;;14.90;53.40;;;;;;5070675;28;20028;-50
2022/10/11 08:57:39;;;;;;;16.17;2.47;;;12.80;53.10;;;;;;5071318;28;20063;-51
2022/10/11 09:00:14;;;;;;;13.38;2.28;;;13.80;55.70;;;;;;5070241;28;20501;-49
2022/10/11 09:03:05;;;;;;;13.93;2.35;;;13.00;54.50;;;;;;5053569;28;20046;-48
2022/10/11 09:05:34;;;;;;;12.07;2.22;;;13.00;48.60;;;;;;5058699;28;20048;-50
2022/10/11 09:08:15;;;;;;;14.63;2.13;;;13.10;55.60;;;;;;5069928;28;20051;-48
2022/10/11 09:10:55;;;;;;;9.80;2.10;;;13.30;56.60;;;;;;5067970;28;20040;-49
2022/10/11 09:13:40;;;;;;;15.82;2.83;;;13.10;61.30;;;;;;5069026;28;20139;-48
2022/10/11 09:16:27;;;;;;;10.43;2.03;;;13.30;62.80;;;;;;5070646;28;20147;-47
2022/10/11 09:18:59;;;;;;;16.95;2.45;;;13.50;61.20;;;;;;5068144;28;20047;-49
2022/10/11 09:21:35;;;;;;;11.38;1.98;;;14.80;43.00;;;;;;5070115;28;20044;-47
2022/10/11 09:24:22;;;;;;;15.23;3.22;;;13.40;47.20;;;;;;5070934;28;20046;-51
2022/10/11 09:26:55;;;;;;;10.00;2.17;;;13.90;30.00;;;;;;5071566;28;20742;-48
2022/10/11 09:29:44;;;;;;;13.32;2.53;;;14.10;42.20;;;;;;5071643;28;20040;-48
2022/10/11 09:32:19;;;;;;;13.95;2.65;;;14.00;38.80;;;;;;5071824;28;20040;-50
2022/10/11 09:34:48;;;;;;;12.10;2.10;;;14.00;21.40;;;;;;5070395;28;20097;-49
2022/10/11 09:37:57;;;;;;;13.88;2.20;;;13.80;25.90;;;;;;5070298;28;20468;-50
2022/10/11 09:40:42;;;;;;;8.32;2.03;;;13.60;6.10;;;;;;4989379;28;20216;-52
2022/10/11 09:43:08;;;;;;;9.68;2.05;;;13.90;29.10;;;;;;5100124;27;20044;-51
2022/10/11 09:45:34;;;;;;;14.05;2.28;;;13.50;26.80;;;;;;5068954;28;20420;-47
2022/10/11 09:48:01;;;;;;;11.80;1.73;;;13.60;23.40;;;;;;5070498;28;20713;-49
2022/10/11 09:50:30;;;;;;;15.07;2.28;;;13.70;26.70;;;;;;5068868;28;20048;-47
2022/10/11 09:52:58;;;;;;;18.67;2.42;;;13.90;25.20;;;;;;5069426;28;20043;-50
2022/10/11 09:55:49;;;;;;;14.20;2.33;;;14.00;28.30;;;;;;5070996;28;20044;-47
2022/10/11 09:58:34;;;;;;;13.35;2.60;;;14.10;24.40;;;;;;5071269;28;20048;-47
2022/10/11 10:01:05;;;;;;;11.35;1.90;;;14.30;19.60;;;;;;5070046;28;20048;-47
2022/10/11 10:03:34;;;;;;;11.23;3.20;;;14.40;16.90;;;;;;5069584;28;21171;-47
2022/10/11 10:06:21;;;;;;;12.20;2.15;;;14.50;3.60;;;;;;5068818;28;20047;-47
2022/10/11 10:08:47;;;;;;;17.75;3.75;;;14.40;1.00;;;;;;5069395;28;20032;-50
2022/10/11 10:11:14;;;;;;;15.85;1.95;;;14.60;1.00;;;;;;5070145;28;20043;-49
2022/10/11 10:13:49;;;;;;;13.73;2.45;;;14.80;1.00;;;;;;5069358;28;20105;-50
2022/10/11 10:16:30;;;;;;;13.68;2.28;;;14.90;1.00;;;;;;5068553;28;20131;-49
2022/10/11 10:19:24;;;;;;;12.68;2.60;;;15.00;1.00;;;;;;5067535;28;20042;-48
2022/10/11 10:21:52;;;;;;;12.43;2.35;;;15.00;1.00;;;;;;5066892;28;20044;-48
2022/10/11 10:24:20;;;;;;;13.82;2.53;;;15.20;1.00;;;;;;5067809;28;20043;-51
2022/10/11 10:27:21;;;;;;;14.13;2.40;;;15.20;1.00;;;;;;5069032;28;20505;-49
2022/10/11 10:30:09;;;;;;;11.77;1.95;;;15.40;1.00;;;;;;5069997;28;20035;-47
2022/10/11 10:33:02;;;;;;;10.75;2.10;;;15.20;1.00;;;;;;5070010;28;20543;-48
2022/10/11 10:35:44;;;;;;;13.05;2.00;;;16.00;1.00;;;;;;5069759;28;20051;-47
2022/10/11 10:38:21;;;;;;;14.02;2.45;;;16.10;99.90;;;;;;5068659;28;20540;-47
2022/10/11 10:40:51;;;;;;;13.20;2.42;;;16.00;99.90;;;;;;5070000;28;20051;-48
2022/10/11 10:43:20;;;;;;;10.48;2.20;;;16.30;99.90;;;;;;5069178;28;20051;-47
2022/10/11 10:46:23;;;;;;;13.15;2.58;;;16.50;99.90;;;;;;5068855;28;20047;-47
2022/10/11 10:49:11;;;;;;;13.90;2.35;;;16.50;99.90;;;;;;5066469;28;20044;-47
2022/10/11 10:52:02;;;;;;;12.68;1.98;;;16.80;99.90;;;;;;5066188;28;20044;-45
2022/10/11 10:54:50;;;;;;;16.73;3.25;;;16.60;99.90;;;;;;5068217;28;20252;-46
2022/10/11 10:57:27;;;;;;;9.77;1.58;;;16.40;43.80;;;;;;5067967;28;20824;-48
2022/10/11 11:00:13;;;;;;;14.25;2.47;;;16.00;3.30;;;;;;5072716;28;20523;-46
2022/10/11 11:03:01;;;;;;;10.07;1.85;;;16.10;19.40;;;;;;5072753;28;20602;-47
2022/10/11 11:05:27;;;;;;;15.15;2.42;;;15.90;99.90;;;;;;5072529;28;20048;-49
2022/10/11 11:08:08;;;;;;;13.85;2.13;;;15.80;99.90;;;;;;5073547;28;20974;-52
2022/10/11 11:11:19;;;;;;;10.85;1.70;;;15.60;99.90;;;;;;5073818;28;20070;-50
2022/10/11 11:13:59;;;;;;;14.95;2.17;;;15.20;1.00;;;;;;5072818;28;20075;-48
2022/10/11 11:16:46;;;;;;;11.93;2.30;;;15.00;99.90;;;;;;5070859;28;20043;-46
2022/10/11 11:19:36;;;;;;;8.75;1.73;;;14.80;99.90;;;;;;5070089;28;20079;-48
2022/10/11 11:22:32;;;;;;;9.00;1.70;;;16.10;99.90;;;;;;5070718;28;20047;-46
2022/10/11 11:25:18;;;;;;;13.93;2.25;;;14.70;99.90;;;;;;5070004;28;20043;-48
2022/10/11 11:28:15;;;;;;;10.10;2.90;;;14.40;99.90;;;;;;5071355;28;20047;-51
2022/10/11 11:31:09;;;;;;;9.27;1.98;;;14.40;99.90;;;;;;5072619;28;20044;-50
2022/10/11 11:33:57;;;;;;;10.70;2.08;;;14.20;99.90;;;;;;5070841;28;20036;-49
2022/10/11 11:36:41;;;;;;;11.40;1.70;;;14.40;1.00;;;;;;5072261;28;20655;-50
2022/10/11 11:39:33;;;;;;;14.48;2.67;;;14.40;1.00;;;;;;5072943;28;20131;-48
2022/10/11 11:42:17;;;;;;;11.23;2.60;;;14.20;1.00;;;;;;5062679;28;20431;-49
2022/10/11 11:44:48;;;;;;;10.93;2.67;;;14.00;1.00;;;;;;5070962;28;20040;-46
2022/10/11 11:47:26;;;;;;;12.13;2.38;;;14.00;1.00;;;;;;5071740;28;20050;-46
2022/10/11 11:50:04;;;;;;;12.63;2.30;;;14.00;1.00;;;;;;5072407;28;20044;-46
2022/10/11 11:52:38;;;;;;;10.30;2.00;;;14.20;1.00;;;;;;5071480;28;20036;-49
2022/10/11 11:55:16;;;;;;;16.13;3.70;;;14.40;1.00;;;;;;5070951;28;20036;-47
2022/10/11 11:58:18;;;;;;;14.45;4.03;;;14.40;1.00;;;;;;5071632;28;20504;-46
2022/10/11 12:01:21;;;;;;;9.48;2.63;;;14.60;1.00;;;;;;5070537;28;20056;-47
2022/10/11 12:03:53;;;;;;;12.95;3.75;;;14.70;1.00;;;;;;5070496;28;20048;-46
2022/10/11 12:06:23;;;;;;;19.38;4.55;;;14.70;1.00;;;;;;5070311;28;20048;-47
2022/10/11 12:09:02;;;;;;;13.57;3.40;;;14.70;1.00;;;;;;5068517;28;20516;-47
2022/10/11 12:11:57;;;;;;;17.85;5.88;;;14.60;1.00;;;;;;5071840;28;20072;-48
2022/10/11 12:14:32;;;;;;;16.10;2.47;;;14.70;1.00;;;;;;5071225;28;20374;-48
2022/10/11 12:17:15;;;;;;;10.25;2.65;;;14.70;1.00;;;;;;5064986;28;20040;-48
2022/10/11 12:20:03;;;;;;;13.05;2.10;;;15.90;1.00;;;;;;5070003;28;20047;-46
2022/10/11 12:22:29;;;;;;;9.93;1.95;;;14.50;1.00;;;;;;5064045;28;20085;-46
2022/10/11 12:24:58;;;;;;;12.32;3.90;;;14.50;1.00;;;;;;5069988;28;20040;-46
2022/10/11 12:27:42;;;;;;;13.52;2.97;;;14.80;1.00;;;;;;5072205;28;20653;-50
2022/10/11 12:30:42;;;;;;;15.48;4.43;;;14.30;1.00;;;;;;5073012;28;20044;-46
2022/10/11 12:33:32;;;;;;;11.38;2.47;;;14.50;1.00;;;;;;5044718;28;20054;-46
2022/10/11 12:36:02;;;;;;;14.35;2.78;;;14.20;1.00;;;;;;5070442;28;20127;-46
2022/10/11 12:38:38;;;;;;;11.25;3.33;;;14.40;1.00;;;;;;5072176;28;20036;-47
2022/10/11 12:41:15;;;;;;;11.38;2.50;;;14.30;1.00;;;;;;5072062;28;20563;-46
2022/10/11 12:43:47;;;;;;;13.23;2.75;;;14.10;1.00;;;;;;5070158;28;20072;-46
2022/10/11 12:46:28;;;;;;;12.35;2.22;;;14.20;1.00;;;;;;5070595;28;20463;-50
2022/10/11 12:49:18;;;;;;;15.18;3.92;;;14.10;1.00;;;;;;5069466;28;20047;-47
2022/10/11 12:52:14;;;;;;;10.88;2.35;;;14.20;1.00;;;;;;5068240;28;20044;-50
2022/10/11 12:55:05;;;;;;;11.70;2.63;;;14.30;1.00;;;;;;5066177;28;20060;-48
2022/10/11 12:57:42;;;;;;;13.50;2.97;;;14.10;1.00;;;;;;5066642;28;20044;-50
2022/10/11 13:00:25;;;;;;;14.30;2.80;;;14.30;1.00;;;;;;5066307;28;20044;-45
2022/10/11 13:02:51;;;;;;;10.88;2.40;;;14.30;1.00;;;;;;5068335;28;20040;-47
2022/10/11 13:05:45;;;;;;;10.88;2.63;;;14.30;1.00;;;;;;5071450;28;20055;-46
2022/10/11 13:08:17;;;;;;;11.10;2.58;;;15.10;1.00;;;;;;5070204;28;21328;-47
2022/10/11 13:10:46;;;;;;;14.00;3.20;;;14.70;1.00;;;;;;5071661;28;20382;-49
2022/10/11 13:13:29;;;;;;;14.80;3.47;;;14.80;1.00;;;;;;5069599;28;20036;-46
2022/10/11 13:16:07;;;;;;;12.65;2.13;;;15.20;1.00;;;;;;5071269;28;20047;-47